Time;durP1;ratioP1;P1;durP2;ratioP2;P2;SDS_P1;SDS_P2;PMS_P1;PMS_P2;Temp;Humidity;BMP_temperature;BMP_pressure;BME280_temperature;BME280_humidity;BME280_pressure;Samples;Min_cycle;Max_cycle;Signal;HPM_P1;HPM_P2
2022/11/18 00:00:32;;;;;;;12.85;7.55;;;;;;;5.89;92.05;99576.34;5068432;28;20592;-68
2022/11/18 00:03:00;;;;;;;13.13;7.85;;;;;;;5.80;92.68;99585.44;5059708;28;20055;-68
2022/11/18 00:05:27;;;;;;;12.98;8.15;;;;;;;5.70;93.39;99579.00;5053219;28;20040;-69
2022/11/18 00:07:53;;;;;;;11.50;7.32;;;;;;;5.84;93.26;99584.34;5048439;28;20044;-68
2022/11/18 00:10:19;;;;;;;11.55;7.05;;;;;;;5.98;92.17;99591.50;5038453;28;20044;-68
2022/11/18 00:15:30;;;;;;;13.07;7.40;;;;;;;5.68;93.19;99599.06;5054409;27;20051;-68
2022/11/18 00:17:56;;;;;;;10.70;5.82;;;;;;;5.48;94.07;99607.00;5060925;27;20067;-68
2022/11/18 00:20:24;;;;;;;14.65;7.70;;;;;;;5.80;92.11;99601.03;5049882;28;20515;-68
2022/11/18 00:22:50;;;;;;;13.25;7.43;;;;;;;5.94;91.53;99600.38;5039134;27;20514;-68
2022/11/18 00:25:17;;;;;;;12.02;7.00;;;;;;;5.59;92.24;99604.72;5047419;28;20041;-68
2022/11/18 00:27:43;;;;;;;10.35;6.35;;;;;;;5.60;92.53;99614.19;5057063;28;20055;-68
2022/11/18 00:30:11;;;;;;;9.55;5.93;;;;;;;5.45;92.88;99616.69;5036912;28;20075;-68
2022/11/18 00:32:37;;;;;;;10.80;6.60;;;;;;;5.54;92.22;99608.47;5046517;28;20041;-68
2022/11/18 00:35:05;;;;;;;13.40;7.07;;;;;;;5.72;91.61;99611.00;5048688;28;20045;-68
2022/11/18 00:37:33;;;;;;;11.27;6.53;;;;;;;5.33;93.25;99613.78;5053739;28;20044;-68
2022/11/18 00:40:00;;;;;;;11.88;7.45;;;;;;;5.56;93.14;99609.22;5067207;28;20045;-68
2022/11/18 00:45:10;;;;;;;10.68;5.90;;;;;;;5.38;93.09;99618.75;5059565;28;20062;-68
2022/11/18 00:47:37;;;;;;;12.52;7.38;;;;;;;5.27;93.28;99621.03;5052179;28;20049;-68
2022/11/18 00:50:04;;;;;;;13.70;7.53;;;;;;;5.62;92.42;99614.94;5047512;28;20051;-68
2022/11/18 00:52:30;;;;;;;12.27;6.93;;;;;;;5.79;91.79;99607.19;5066615;28;20043;-68
2022/11/18 00:54:58;;;;;;;16.27;8.90;;;;;;;5.67;92.47;99612.13;5087811;27;20423;-68
2022/11/18 00:57:24;;;;;;;13.60;8.25;;;;;;;5.83;91.19;99615.66;5037848;27;20036;-68
2022/11/18 00:59:51;;;;;;;13.77;8.35;;;;;;;6.02;90.29;99607.81;5048231;28;20043;-68
2022/11/18 01:02:17;;;;;;;15.95;8.25;;;;;;;6.30;89.07;99611.50;5046899;28;20488;-68
2022/11/18 01:04:44;;;;;;;11.73;7.78;;;;;;;6.34;88.61;99605.22;5035178;27;20048;-68
2022/11/18 01:07:10;;;;;;;15.98;9.00;;;;;;;6.47;87.87;99607.19;5049304;28;20412;-68
2022/11/18 01:09:37;;;;;;;15.00;7.70;;;;;;;6.12;88.58;99601.22;5047067;28;20422;-68
2022/11/18 01:14:49;;;;;;;12.60;7.60;;;;;;;6.08;87.99;99608.31;5046886;28;20531;-68
2022/11/18 01:17:15;;;;;;;13.18;7.10;;;;;;;5.66;90.26;99610.44;5047121;28;20052;-68
2022/11/18 01:19:42;;;;;;;15.55;8.77;;;;;;;5.76;90.20;99612.53;5061003;28;20059;-67
2022/11/18 01:22:08;;;;;;;17.42;8.57;;;;;;;5.99;89.90;99613.97;5058454;28;20051;-68
2022/11/18 01:24:35;;;;;;;14.98;8.27;;;;;;;6.12;88.62;99609.84;5067903;28;20531;-68
2022/11/18 01:27:02;;;;;;;16.60;8.85;;;;;;;6.02;88.21;99615.63;5062146;28;20454;-68
2022/11/18 01:29:30;;;;;;;13.68;8.10;;;;;;;5.88;88.68;99611.94;5046970;28;20045;-68
2022/11/18 01:31:56;;;;;;;14.05;8.77;;;;;;;5.47;90.09;99626.09;5045365;28;20051;-68
2022/11/18 01:34:23;;;;;;;15.20;8.35;;;;;;;5.69;90.27;99611.13;5046365;28;20070;-68
2022/11/18 01:36:52;;;;;;;16.08;8.35;;;;;;;5.56;90.46;99617.88;5048591;28;20117;-68
2022/11/18 01:39:18;;;;;;;16.30;8.77;;;;;;;5.67;89.98;99619.94;5052849;28;20043;-68
2022/11/18 01:41:45;;;;;;;14.38;8.57;;;;;;;5.49;90.68;99621.69;5050099;28;20041;-68
2022/11/18 01:44:45;;;;;;;15.05;8.18;;;;;;;5.58;89.66;99613.41;5056714;28;20113;-68
2022/11/18 01:47:13;;;;;;;14.57;8.00;;;;;;;5.12;92.61;99624.34;5055126;28;20051;-68
2022/11/18 01:49:39;;;;;;;12.88;7.90;;;;;;;5.52;91.01;99618.09;5054528;28;20135;-68
2022/11/18 01:52:06;;;;;;;12.80;7.45;;;;;;;5.73;89.74;99625.66;5048855;28;20052;-68
2022/11/18 01:54:35;;;;;;;13.48;7.95;;;;;;;5.62;89.41;99624.50;5048597;28;20041;-68
2022/11/18 01:57:05;;;;;;;12.93;7.88;;;;;;;5.85;88.77;99619.88;5064933;28;20055;-68
2022/11/18 01:59:35;;;;;;;12.90;7.30;;;;;;;5.66;88.91;99626.88;5055971;28;20413;-68
2022/11/18 02:02:05;;;;;;;13.63;8.18;;;;;;;5.78;88.74;99622.84;5049796;28;20118;-68
2022/11/18 02:04:34;;;;;;;18.10;7.85;;;;;;;5.61;89.56;99622.84;5041606;27;20115;-68
2022/11/18 02:07:01;;;;;;;16.00;8.50;;;;;;;5.56;89.39;99630.88;5050754;27;20051;-68
2022/11/18 02:09:28;;;;;;;14.73;8.25;;;;;;;5.26;90.87;99635.78;5049640;27;20044;-68
2022/11/18 02:11:55;;;;;;;14.88;8.18;;;;;;;5.14;92.01;99644.16;5040322;28;20048;-68
2022/11/18 02:14:24;;;;;;;16.73;8.43;;;;;;;5.28;90.79;99652.13;5059036;28;20040;-68
2022/11/18 02:17:08;;;;;;;15.18;8.70;;;;;;;5.38;90.18;99652.56;5050242;28;20044;-68
2022/11/18 02:20:22;;;;;;;14.25;8.25;;;;;;;5.33;90.26;99662.31;5052692;28;20059;-68
2022/11/18 02:23:19;;;;;;;15.00;8.80;;;;;;;5.24;90.57;99655.81;5037234;28;20412;-68
2022/11/18 02:26:02;;;;;;;15.50;8.90;;;;;;;5.09;91.52;99663.47;5028269;28;20037;-67
2022/11/18 02:28:40;;;;;;;16.60;9.27;;;;;;;5.05;92.38;99660.19;5046429;28;20056;-67
2022/11/18 02:31:14;;;;;;;19.10;9.32;;;;;;;5.44;90.65;99661.81;5049557;27;20433;-67
2022/11/18 02:33:49;;;;;;;17.00;8.77;;;;;;;5.49;89.58;99649.44;5050103;28;20047;-68
2022/11/18 02:36:20;;;;;;;19.35;9.68;;;;;;;5.43;90.17;99661.00;5039340;28;20048;-67
2022/11/18 02:38:52;;;;;;;20.13;10.98;;;;;;;4.98;90.86;99663.13;5058414;28;20044;-68
2022/11/18 02:41:23;;;;;;;15.88;8.68;;;;;;;5.08;91.91;99661.78;5066337;28;20040;-68
2022/11/18 02:43:54;;;;;;;19.03;10.37;;;;;;;5.27;91.31;99662.63;5057555;28;20041;-68
2022/11/18 02:46:26;;;;;;;19.63;9.85;;;;;;;5.67;89.28;99657.19;5055819;28;20278;-68
2022/11/18 02:48:54;;;;;;;19.20;9.82;;;;;;;5.70;88.70;99661.38;5042604;28;20059;-68
2022/11/18 02:51:26;;;;;;;20.38;10.85;;;;;;;5.66;88.99;99660.69;5056589;28;20052;-68
2022/11/18 02:53:56;;;;;;;19.60;11.02;;;;;;;5.67;88.55;99654.59;5031386;28;20040;-68
2022/11/18 02:56:25;;;;;;;19.70;10.93;;;;;;;5.75;88.01;99654.22;5049986;28;20048;-68
2022/11/18 02:58:52;;;;;;;20.90;11.80;;;;;;;5.65;88.07;99664.25;5048983;28;20507;-68
2022/11/18 03:01:21;;;;;;;22.58;11.80;;;;;;;5.73;87.43;99656.88;5038896;28;20439;-68
2022/11/18 03:03:49;;;;;;;20.63;10.20;;;;;;;5.47;89.11;99662.50;5049575;28;20052;-68
2022/11/18 03:06:27;;;;;;;23.75;10.90;;;;;;;5.65;88.17;99666.84;5049015;27;20126;-68
2022/11/18 03:09:00;;;;;;;24.13;11.73;;;;;;;5.03;91.42;99672.38;5046418;27;20049;-68
2022/11/18 03:11:29;;;;;;;22.52;10.93;;;;;;;5.01;91.03;99670.78;5047233;27;20047;-68
2022/11/18 03:14:08;;;;;;;19.13;11.45;;;;;;;5.25;90.07;99665.28;5050050;27;20044;-68
2022/11/18 03:16:39;;;;;;;20.00;10.35;;;;;;;5.22;90.24;99668.03;5057834;27;20040;-68
2022/11/18 03:19:16;;;;;;;24.02;12.35;;;;;;;5.39;89.31;99668.06;5040667;27;20055;-67
2022/11/18 03:21:47;;;;;;;22.80;11.30;;;;;;;5.61;88.43;99675.69;5059498;28;20073;-67
2022/11/18 03:24:17;;;;;;;22.65;11.07;;;;;;;5.61;88.28;99675.69;5048816;28;20044;-67
2022/11/18 03:26:48;;;;;;;20.77;10.98;;;;;;;5.10;90.38;99688.56;5043736;28;20103;-67
2022/11/18 03:29:18;;;;;;;18.95;10.95;;;;;;;5.56;88.65;99689.81;5048148;28;20401;-67
2022/11/18 03:31:48;;;;;;;20.58;11.07;;;;;;;5.69;87.58;99686.56;5039096;28;20420;-67
2022/11/18 03:34:20;;;;;;;21.83;11.52;;;;;;;5.71;86.75;99689.94;5049312;28;20051;-67
2022/11/18 03:36:50;;;;;;;21.00;10.55;;;;;;;5.19;89.03;99691.56;5062306;28;20039;-68
2022/11/18 03:39:20;;;;;;;22.73;12.70;;;;;;;5.26;88.98;99686.91;5055630;28;20052;-68
2022/11/18 03:41:52;;;;;;;21.63;11.50;;;;;;;5.37;88.10;99687.25;5048115;28;20040;-68
2022/11/18 03:44:22;;;;;;;24.65;11.75;;;;;;;5.23;88.91;99693.09;5047394;28;20520;-68
2022/11/18 03:46:53;;;;;;;21.58;10.80;;;;;;;4.89;89.56;99695.56;5051081;28;20055;-68
2022/11/18 03:49:27;;;;;;;26.50;11.48;;;;;;;4.53;91.91;99705.81;5058846;28;20051;-68
2022/11/18 03:51:58;;;;;;;23.95;13.13;;;;;;;4.37;91.54;99716.00;5042422;28;20052;-68
2022/11/18 03:54:29;;;;;;;20.63;11.48;;;;;;;4.43;91.43;99717.50;5046366;28;20041;-68
2022/11/18 03:56:59;;;;;;;26.88;12.02;;;;;;;4.56;90.91;99712.63;5038299;27;20040;-68
2022/11/18 03:59:31;;;;;;;22.33;10.80;;;;;;;4.35;92.45;99722.19;5047646;27;20048;-68
2022/11/18 04:02:04;;;;;;;21.98;12.10;;;;;;;4.26;92.72;99714.78;5048668;27;20044;-68
2022/11/18 04:04:32;;;;;;;24.35;10.77;;;;;;;4.05;94.04;99724.31;5039535;27;20504;-68
2022/11/18 04:07:08;;;;;;;26.38;12.60;;;;;;;4.03;94.88;99723.50;5047854;27;20048;-68
2022/11/18 04:09:41;;;;;;;27.23;14.10;;;;;;;4.26;93.99;99725.16;5029053;28;20044;-68
2022/11/18 04:12:12;;;;;;;27.60;13.25;;;;;;;4.16;93.78;99731.63;5046637;28;20059;-68
2022/11/18 04:14:41;;;;;;;31.27;14.10;;;;;;;4.23;93.73;99746.03;5056446;28;20052;-68
2022/11/18 04:17:09;;;;;;;28.90;14.23;;;;;;;4.29;92.81;99744.03;5046810;27;20051;-68
2022/11/18 04:19:37;;;;;;;26.08;14.23;;;;;;;4.39;92.34;99754.88;5050916;27;20424;-68
2022/11/18 04:22:04;;;;;;;27.52;13.55;;;;;;;4.32;92.15;99754.28;5055079;27;20044;-68
2022/11/18 04:24:30;;;;;;;32.33;15.32;;;;;;;4.16;92.94;99755.00;5045946;27;20471;-68
2022/11/18 04:26:57;;;;;;;26.13;11.88;;;;;;;4.01;92.99;99766.00;5047203;27;20389;-68
2022/11/18 04:29:23;;;;;;;26.67;11.70;;;;;;;4.17;92.45;99760.13;5047348;27;20044;-68
2022/11/18 04:31:50;;;;;;;27.67;14.52;;;;;;;4.38;91.85;99772.22;5037797;28;20068;-68
2022/11/18 04:34:16;;;;;;;28.90;14.60;;;;;;;4.45;91.72;99771.94;5046466;28;20052;-68
2022/11/18 04:36:44;;;;;;;30.67;14.70;;;;;;;4.45;91.47;99777.13;5047133;27;20409;-68
2022/11/18 04:39:11;;;;;;;30.80;14.38;;;;;;;4.44;91.11;99776.28;5036637;28;20051;-68
2022/11/18 04:41:55;;;;;;;27.88;14.05;;;;;;;4.38;90.67;99779.16;5046598;27;20044;-68
2022/11/18 04:44:23;;;;;;;27.40;13.23;;;;;;;4.67;90.21;99778.75;5046388;28;20048;-68
2022/11/18 04:46:49;;;;;;;26.77;13.68;;;;;;;4.26;90.90;99783.09;5055002;28;20049;-68
2022/11/18 04:49:16;;;;;;;30.60;14.45;;;;;;;4.23;91.33;99784.97;5055721;28;20041;-68
2022/11/18 04:51:45;;;;;;;34.83;13.25;;;;;;;3.91;92.89;99787.13;5051276;28;20047;-68
2022/11/18 04:54:12;;;;;;;29.25;13.80;;;;;;;4.28;92.46;99785.63;5046250;27;20531;-67
2022/11/18 04:56:39;;;;;;;28.80;14.45;;;;;;;4.29;91.33;99787.28;5047084;28;20048;-67
2022/11/18 04:59:06;;;;;;;26.13;12.50;;;;;;;4.36;90.19;99781.78;5036938;28;20051;-67
2022/11/18 05:01:33;;;;;;;30.45;13.07;;;;;;;4.64;89.86;99775.44;5046771;27;20040;-67
2022/11/18 05:04:00;;;;;;;27.15;13.10;;;;;;;4.21;90.99;99782.41;5047511;27;20048;-67
2022/11/18 05:06:26;;;;;;;29.10;14.38;;;;;;;4.39;90.92;99779.09;5038034;28;20064;-67
2022/11/18 05:08:54;;;;;;;33.28;14.40;;;;;;;3.88;92.94;99779.44;5047155;28;20051;-67
2022/11/18 05:14:05;;;;;;;30.08;14.00;;;;;;;4.35;91.20;99787.06;5052937;28;20101;-67
2022/11/18 05:16:31;;;;;;;32.22;14.63;;;;;;;4.54;90.36;99793.19;5064969;28;20044;-67
2022/11/18 05:18:58;;;;;;;31.17;13.15;;;;;;;4.51;89.50;99793.28;5043602;27;20040;-68
2022/11/18 05:21:24;;;;;;;28.48;13.75;;;;;;;4.60;88.90;99787.72;5060955;27;20051;-68
2022/11/18 05:23:51;;;;;;;33.53;15.23;;;;;;;4.37;88.29;99791.28;5051333;27;20053;-68
2022/11/18 05:26:18;;;;;;;32.70;16.25;;;;;;;4.10;90.24;99812.31;5040933;28;20519;-68
2022/11/18 05:28:45;;;;;;;33.75;14.43;;;;;;;4.19;89.92;99822.31;5063518;28;20086;-68
2022/11/18 05:31:13;;;;;;;27.85;15.18;;;;;;;3.67;91.10;99816.56;5049821;28;20044;-67
2022/11/18 05:33:40;;;;;;;38.50;15.75;;;;;;;3.90;91.62;99821.72;5040815;27;20393;-67
2022/11/18 05:36:09;;;;;;;33.13;15.55;;;;;;;4.07;90.29;99822.78;5074516;27;20051;-67
2022/11/18 05:38:36;;;;;;;35.40;15.68;;;;;;;3.79;91.45;99810.09;5057366;28;20044;-67
2022/11/18 05:41:03;;;;;;;32.53;15.10;;;;;;;3.61;92.11;99815.97;5039718;28;20076;-68
2022/11/18 05:43:31;;;;;;;31.17;13.70;;;;;;;3.58;92.37;99814.34;5054148;28;20044;-68
2022/11/18 05:45:58;;;;;;;30.58;12.38;;;;;;;3.20;93.76;99813.19;5059993;28;20120;-67
2022/11/18 05:48:25;;;;;;;30.98;12.88;;;;;;;3.37;93.13;99828.09;5048546;28;20492;-67
2022/11/18 05:50:54;;;;;;;31.08;13.57;;;;;;;3.66;92.20;99827.84;5058309;28;20049;-68
2022/11/18 05:53:22;;;;;;;30.05;13.02;;;;;;;3.89;89.96;99838.19;5082678;27;20119;-68
2022/11/18 05:55:55;;;;;;;19.02;10.30;;;;;;;3.78;89.60;99835.16;5059197;27;20385;-67
2022/11/18 05:58:21;;;;;;;28.33;11.05;;;;;;;3.63;90.46;99833.16;5048985;28;20049;-68
2022/11/18 06:00:52;;;;;;;25.98;11.10;;;;;;;3.11;92.86;99846.31;5044917;28;20048;-67
2022/11/18 06:03:22;;;;;;;24.13;12.00;;;;;;;3.47;92.28;99847.59;5051481;27;20131;-68
2022/11/18 06:05:48;;;;;;;21.20;11.07;;;;;;;3.60;90.63;99848.81;5050460;27;20048;-67
2022/11/18 06:08:17;;;;;;;21.88;11.25;;;;;;;3.31;91.14;99846.47;5041016;27;20055;-67
2022/11/18 06:10:46;;;;;;;25.58;11.60;;;;;;;3.30;91.62;99843.03;5048878;27;20067;-67
2022/11/18 06:13:20;;;;;;;27.80;11.05;;;;;;;3.27;91.68;99840.53;5051121;27;20147;-67
2022/11/18 06:15:46;;;;;;;22.55;10.93;;;;;;;3.49;91.04;99840.59;5055107;27;20537;-68
2022/11/18 06:18:20;;;;;;;23.15;11.05;;;;;;;3.90;88.88;99852.84;5084151;27;20086;-67
2022/11/18 06:20:47;;;;;;;22.33;10.27;;;;;;;3.34;91.07;99846.34;5043318;27;20040;-68
2022/11/18 06:23:13;;;;;;;22.48;9.40;;;;;;;3.28;92.09;99844.00;5068908;28;20447;-67
2022/11/18 06:25:41;;;;;;;22.23;10.93;;;;;;;3.84;89.97;99852.25;5048167;27;20045;-68
2022/11/18 06:28:10;;;;;;;21.63;10.23;;;;;;;4.00;88.16;99863.69;5039696;28;20463;-68
2022/11/18 06:30:36;;;;;;;19.10;9.73;;;;;;;3.86;88.19;99863.41;5049802;28;20052;-68
2022/11/18 06:33:03;;;;;;;20.15;9.57;;;;;;;4.11;86.87;99868.47;5050014;28;20053;-68
2022/11/18 06:35:31;;;;;;;16.52;8.30;;;;;;;3.55;88.82;99866.28;5041066;28;20044;-68
2022/11/18 06:37:57;;;;;;;26.05;11.55;;;;;;;3.38;88.44;99876.44;5050482;28;20052;-67
2022/11/18 06:40:24;;;;;;;19.13;10.48;;;;;;;3.47;89.94;99878.69;5048855;28;20389;-68
2022/11/18 06:45:35;;;;;;;20.10;10.25;;;;;;;3.25;89.20;99888.16;5057582;28;20519;-67
2022/11/18 06:48:02;;;;;;;27.40;10.65;;;;;;;3.41;88.76;99890.13;5061620;28;20420;-69
2022/11/18 06:50:29;;;;;;;23.40;11.02;;;;;;;3.34;89.17;99887.81;5059780;28;20496;-67
2022/11/18 06:53:02;;;;;;;19.92;10.27;;;;;;;3.45;88.88;99885.66;5062243;28;20048;-68
2022/11/18 06:55:28;;;;;;;24.30;10.25;;;;;;;3.39;88.66;99891.94;5055148;28;20051;-67
2022/11/18 06:57:56;;;;;;;21.17;10.55;;;;;;;3.71;89.07;99903.72;5049386;28;20521;-67
2022/11/18 07:00:22;;;;;;;23.02;11.95;;;;;;;4.20;86.91;99907.03;5047801;28;20044;-67
2022/11/18 07:02:48;;;;;;;26.65;13.35;;;;;;;4.18;86.20;99904.50;5038718;28;20441;-68
2022/11/18 07:05:15;;;;;;;25.45;12.43;;;;;;;4.12;86.30;99909.09;5048896;28;20044;-67
2022/11/18 07:07:41;;;;;;;24.45;13.05;;;;;;;4.29;85.60;99915.31;5048045;28;20040;-67
2022/11/18 07:10:10;;;;;;;30.08;13.70;;;;;;;4.27;85.52;99921.47;5039342;28;20424;-68
2022/11/18 07:12:36;;;;;;;29.52;14.30;;;;;;;3.71;87.00;99915.81;5050824;28;20045;-67
2022/11/18 07:15:03;;;;;;;27.35;11.75;;;;;;;3.71;87.09;99934.81;5060201;28;20587;-67
2022/11/18 07:17:30;;;;;;;28.40;13.93;;;;;;;3.79;87.13;99930.22;5044999;28;20075;-68
2022/11/18 07:19:56;;;;;;;23.75;11.85;;;;;;;3.52;87.42;99936.38;5057428;28;20040;-67
2022/11/18 07:22:22;;;;;;;27.33;12.65;;;;;;;3.62;87.15;99936.91;5050303;27;20118;-67
2022/11/18 07:24:49;;;;;;;29.85;13.30;;;;;;;3.43;87.86;99934.13;5041798;27;20045;-66
2022/11/18 07:27:17;;;;;;;24.27;12.45;;;;;;;3.51;87.65;99942.44;5041647;27;20037;-66
2022/11/18 07:29:43;;;;;;;25.45;12.20;;;;;;;3.07;87.73;99936.22;5052558;27;20106;-66
2022/11/18 07:32:09;;;;;;;26.08;12.88;;;;;;;2.90;88.53;99947.16;5053367;27;20775;-67
2022/11/18 07:34:36;;;;;;;25.00;12.65;;;;;;;3.09;88.10;99946.56;5048526;27;20044;-66
2022/11/18 07:37:02;;;;;;;28.75;12.77;;;;;;;3.28;87.56;99951.06;5047882;27;20051;-66
2022/11/18 07:39:29;;;;;;;23.08;10.88;;;;;;;3.15;87.02;99948.91;5048743;28;20058;-66
2022/11/18 07:41:55;;;;;;;24.65;11.77;;;;;;;3.07;87.57;99961.31;5043327;28;20055;-66
2022/11/18 07:44:23;;;;;;;24.23;12.18;;;;;;;3.16;88.32;99966.16;5056133;28;20048;-66
2022/11/18 07:46:49;;;;;;;24.25;11.77;;;;;;;3.65;86.12;99963.56;5051308;28;20051;-66
2022/11/18 07:49:16;;;;;;;28.27;12.15;;;;;;;3.80;84.81;99983.78;5049000;28;20078;-67
2022/11/18 07:51:42;;;;;;;21.02;9.65;;;;;;;3.55;84.33;99985.50;5058436;28;20526;-66
2022/11/18 07:54:11;;;;;;;12.70;7.10;;;;;;;2.94;86.16;99978.97;5057558;28;20040;-66
2022/11/18 07:56:38;;;;;;;20.27;9.93;;;;;;;2.95;86.82;99978.09;5061173;28;20043;-66
2022/11/18 07:59:04;;;;;;;19.45;9.60;;;;;;;3.17;86.10;99989.44;5047182;28;20052;-66
2022/11/18 08:01:32;;;;;;;16.77;9.00;;;;;;;2.58;87.74;99988.78;5049004;27;20912;-66
2022/11/18 08:04:05;;;;;;;18.30;10.00;;;;;;;2.47;89.51;99988.25;5036488;28;20314;-66
2022/11/18 08:06:33;;;;;;;16.23;9.25;;;;;;;2.66;88.97;99991.94;5077035;27;20566;-65
2022/11/18 08:08:59;;;;;;;15.23;7.68;;;;;;;2.56;88.44;99993.13;5050664;27;20055;-66
2022/11/18 08:11:26;;;;;;;17.58;9.23;;;;;;;2.43;89.61;100002.19;5083619;27;20059;-66
2022/11/18 08:13:52;;;;;;;19.15;9.80;;;;;;;2.46;89.44;100009.84;5056369;28;20036;-65
2022/11/18 08:16:21;;;;;;;19.15;9.80;;;;;;;2.55;88.94;100009.53;5049851;28;20450;-66
2022/11/18 08:18:50;;;;;;;17.10;9.35;;;;;;;2.92;87.33;99998.88;5046018;28;20048;-66
2022/11/18 08:21:17;;;;;;;18.33;9.73;;;;;;;2.65;87.80;100010.97;5048334;28;20053;-66
2022/11/18 08:23:49;;;;;;;19.55;9.25;;;;;;;2.67;88.81;100009.19;5039350;28;20514;-66
2022/11/18 08:26:16;;;;;;;19.20;10.13;;;;;;;2.85;87.81;100021.53;5048076;28;20048;-66
2022/11/18 08:28:44;;;;;;;21.92;10.80;;;;;;;2.96;87.52;100015.19;5049244;28;20041;-66
2022/11/18 08:31:11;;;;;;;24.08;10.88;;;;;;;3.14;87.17;100022.38;5038049;28;20040;-66
2022/11/18 08:33:38;;;;;;;21.95;11.30;;;;;;;3.63;85.62;100024.13;5072305;27;20058;-66
2022/11/18 08:36:08;;;;;;;23.17;11.57;;;;;;;3.64;84.33;100031.00;5053464;28;20484;-70
2022/11/18 08:38:34;;;;;;;21.17;10.88;;;;;;;3.61;84.66;100028.53;5037652;27;20067;-66
2022/11/18 08:41:02;;;;;;;24.35;11.20;;;;;;;3.76;83.48;100031.44;5055468;27;20059;-67
2022/11/18 08:43:28;;;;;;;20.95;11.25;;;;;;;3.80;82.92;100042.56;5078408;28;20044;-66
2022/11/18 08:45:55;;;;;;;22.80;11.48;;;;;;;4.10;82.10;100038.84;5048757;27;20496;-66
2022/11/18 08:48:21;;;;;;;24.00;11.52;;;;;;;3.87;82.38;100050.06;5059591;27;20055;-66
2022/11/18 08:50:48;;;;;;;26.83;12.70;;;;;;;3.84;82.85;100051.94;5051592;27;20040;-65
2022/11/18 08:53:16;;;;;;;25.27;12.65;;;;;;;3.60;83.72;100060.53;5041598;27;20056;-66
2022/11/18 08:55:42;;;;;;;20.70;11.18;;;;;;;3.41;83.62;100055.13;5049569;28;20048;-66
2022/11/18 08:58:09;;;;;;;21.67;11.27;;;;;;;3.28;84.64;100056.44;5052306;27;20047;-66
2022/11/18 09:00:35;;;;;;;23.83;12.45;;;;;;;3.05;85.59;100066.69;5041637;27;20055;-66
2022/11/18 09:03:02;;;;;;;18.92;9.15;;;;;;;3.20;84.91;100066.19;5051480;27;20536;-66
2022/11/18 09:05:28;;;;;;;23.52;12.43;;;;;;;3.45;84.77;100069.66;5051065;28;20687;-66
2022/11/18 09:07:55;;;;;;;24.48;12.18;;;;;;;3.13;86.30;100070.72;5040518;28;20057;-66
2022/11/18 09:10:22;;;;;;;22.55;10.73;;;;;;;3.28;86.11;100069.38;5049526;28;20082;-66
2022/11/18 09:12:49;;;;;;;19.67;10.73;;;;;;;3.66;84.93;100078.50;5055278;28;20044;-66
2022/11/18 09:15:15;;;;;;;21.00;12.15;;;;;;;3.57;85.45;100084.81;5052209;28;20603;-66
2022/11/18 09:17:42;;;;;;;25.77;12.32;;;;;;;3.74;84.12;100084.22;5060499;28;20036;-66
2022/11/18 09:20:09;;;;;;;26.83;13.18;;;;;;;4.00;83.52;100093.72;5061269;28;20056;-67
2022/11/18 09:22:36;;;;;;;23.77;13.85;;;;;;;3.77;83.75;100095.34;5041116;27;20055;-66
2022/11/18 09:25:03;;;;;;;23.80;12.30;;;;;;;3.71;82.40;100100.75;5049708;27;20044;-67
2022/11/18 09:27:31;;;;;;;26.80;12.27;;;;;;;3.59;83.17;100108.94;5081165;27;20048;-69
2022/11/18 09:29:57;;;;;;;25.70;13.98;;;;;;;3.26;84.54;100100.53;5042750;27;20048;-66
2022/11/18 09:32:24;;;;;;;32.53;14.45;;;;;;;2.94;84.05;100105.88;5049612;28;20055;-66
2022/11/18 09:34:50;;;;;;;26.73;13.38;;;;;;;2.94;84.40;100111.91;5050298;28;20484;-66
2022/11/18 09:37:17;;;;;;;29.65;14.52;;;;;;;3.00;84.72;100115.16;5041088;28;20059;-67
2022/11/18 09:39:44;;;;;;;32.10;15.02;;;;;;;3.02;84.12;100111.66;5057911;28;20049;-66
2022/11/18 09:42:34;;;;;;;30.35;13.40;;;;;;;3.04;84.02;100111.59;5051043;27;20062;-66
2022/11/18 09:45:17;;;;;;;25.30;13.65;;;;;;;3.05;83.36;100111.56;5047210;27;20056;-66
2022/11/18 09:47:43;;;;;;;;;;;;;;;2.84;84.68;100109.63;5050695;27;20048;-66
2022/11/18 09:50:14;;;;;;;29.80;13.73;;;;;;;3.07;83.75;100116.72;5065184;28;19928;-66
2022/11/18 09:52:46;;;;;;;32.05;14.98;;;;;;;3.02;83.34;100122.03;5050775;27;20443;-66
2022/11/18 09:55:13;;;;;;;;;;;;;;;2.93;83.57;100117.13;5041679;27;20055;-66
2022/11/18 09:57:46;;;;;;;30.15;14.38;;;;;;;2.62;85.38;100127.56;5048211;28;19920;-66
2022/11/18 10:00:15;;;;;;;29.77;14.43;;;;;;;2.89;85.55;100121.53;5049879;27;20429;-66
2022/11/18 10:02:50;;;;;;;23.77;12.07;;;;;;;2.95;84.73;100123.09;5050163;27;20086;-66
2022/11/18 10:05:19;;;;;;;33.15;13.98;;;;;;;3.17;83.12;100128.47;5050710;28;20051;-66
2022/11/18 10:07:59;;;;;;;29.98;15.30;;;;;;;3.43;82.61;100133.69;5039285;28;20044;-66
2022/11/18 10:10:34;;;;;;;28.25;14.68;;;;;;;3.43;82.82;100136.28;5048220;28;20052;-67
2022/11/18 10:13:09;;;;;;;34.97;15.65;;;;;;;3.82;83.38;100145.31;5039082;28;20193;-67
2022/11/18 10:15:39;;;;;;;33.97;14.70;;;;;;;3.18;84.28;100137.94;5065104;28;20080;-67
2022/11/18 10:18:20;;;;;;;26.05;13.57;;;;;;;3.48;82.80;100136.94;5056029;28;20496;-67
2022/11/18 10:20:56;;;;;;;27.98;13.68;;;;;;;3.40;82.75;100137.19;5048928;27;20538;-66
2022/11/18 10:23:29;;;;;;;25.23;12.43;;;;;;;3.51;83.34;100152.41;5040056;27;20071;-66
2022/11/18 10:25:55;;;;;;;24.08;11.18;;;;;;;3.61;81.92;100146.03;5056635;27;20040;-66
2022/11/18 10:28:28;;;;;;;23.15;11.05;;;;;;;3.47;82.78;100147.38;5052745;28;20501;-66
2022/11/18 10:31:02;;;;;;;23.67;11.35;;;;;;;3.71;82.00;100157.78;5041322;28;20048;-66
2022/11/18 10:33:29;;;;;;;25.20;12.38;;;;;;;3.84;81.65;100153.06;5047468;28;20044;-66
2022/11/18 10:36:24;;;;;;;24.15;11.73;;;;;;;3.93;81.65;100158.78;5049825;28;20139;-65
2022/11/18 10:39:06;;;;;;;25.27;12.68;;;;;;;3.95;81.30;100170.84;5057781;28;20523;-65
2022/11/18 10:41:48;;;;;;;27.55;11.90;;;;;;;3.70;81.43;100171.66;5049811;28;20225;-66
2022/11/18 10:44:37;;;;;;;26.05;13.13;;;;;;;3.90;81.69;100186.56;5053514;28;20048;-67
2022/11/18 10:47:23;;;;;;;27.23;13.18;;;;;;;4.07;81.03;100181.66;5052987;28;20064;-66
2022/11/18 10:49:49;;;;;;;29.10;14.68;;;;;;;4.13;80.94;100185.78;5022720;28;20068;-65
2022/11/18 10:52:15;;;;;;;25.20;14.23;;;;;;;3.89;80.94;100185.72;5049124;28;20048;-65
2022/11/18 10:54:43;;;;;;;25.48;13.95;;;;;;;3.47;82.20;100187.13;5050413;28;20048;-65
2022/11/18 10:57:17;;;;;;;27.10;13.82;;;;;;;3.55;82.03;100186.88;5050891;28;20049;-65
2022/11/18 10:59:50;;;;;;;27.27;13.57;;;;;;;3.56;82.75;100193.72;5048379;28;20071;-65
2022/11/18 11:02:19;;;;;;;26.70;13.32;;;;;;;3.42;83.42;100189.00;5053174;28;20064;-65
2022/11/18 11:04:48;;;;;;;26.27;13.48;;;;;;;3.47;82.78;100194.03;5069938;28;20051;-65
2022/11/18 11:07:17;;;;;;;31.42;16.73;;;;;;;3.70;82.01;100197.56;5069852;28;20040;-66
2022/11/18 11:09:44;;;;;;;29.85;15.40;;;;;;;3.73;81.64;100202.66;5057993;28;20079;-65
2022/11/18 11:12:14;;;;;;;29.33;15.07;;;;;;;3.52;80.83;100198.16;5048041;28;20131;-66
2022/11/18 11:14:51;;;;;;;31.25;15.77;;;;;;;3.38;81.43;100197.75;5060436;27;20132;-65
2022/11/18 11:17:20;;;;;;;30.52;16.30;;;;;;;3.21;82.33;100205.22;5057504;28;20137;-66
2022/11/18 11:19:52;;;;;;;28.55;15.00;;;;;;;3.38;81.93;100210.72;5059926;28;20052;-66
2022/11/18 11:22:19;;;;;;;33.25;17.83;;;;;;;3.41;82.49;100213.19;5043076;27;20040;-66
2022/11/18 11:24:45;;;;;;;33.40;15.90;;;;;;;3.43;82.46;100220.06;5067970;27;20044;-65
2022/11/18 11:27:24;;;;;;;30.90;15.38;;;;;;;3.58;81.77;100223.06;5066551;27;20055;-66
2022/11/18 11:30:18;;;;;;;29.73;15.55;;;;;;;3.42;81.66;100212.31;5047949;28;21526;-65
2022/11/18 11:33:19;;;;;;;31.15;16.02;;;;;;;3.44;81.73;100231.25;5039147;28;20051;-66
2022/11/18 11:35:54;;;;;;;32.92;16.33;;;;;;;3.49;81.11;100221.59;5048760;28;20056;-65
2022/11/18 11:38:32;;;;;;;27.67;13.10;;;;;;;3.36;79.17;100223.69;5048944;28;20400;-66
2022/11/18 11:41:06;;;;;;;34.30;16.90;;;;;;;3.62;78.98;100225.47;5065921;28;20039;-66
2022/11/18 11:43:41;;;;;;;25.67;14.25;;;;;;;3.50;77.76;100233.66;5057042;28;20040;-65
2022/11/18 11:46:37;;;;;;;34.65;17.45;;;;;;;3.42;79.17;100228.72;5059452;28;20496;-65
2022/11/18 11:49:16;;;;;;;30.08;15.80;;;;;;;2.96;78.46;100238.72;5054102;28;20073;-66
2022/11/18 11:51:50;;;;;;;28.50;13.25;;;;;;;2.22;80.93;100235.59;5038384;27;20040;-65